Warning: Javascript must be enabled to use all the features on this page!


Page Loading - Please Wait...

Click to hideNews Bulletins

Peak Streamflow for the Nation

USGS 13075910 PORTNEUF RIVER NR TYHEE ID

Bannock County, Idaho
Hydrologic Unit Code 17040208
Latitude  42°56'41", Longitude 112°32'40" NAD83
Drainage area 1,305  square miles
Gage datum 4,366.58 feet above NAVD88
Output formats
Table
Graph
Tab-separated file
peakfq (watstore) format
Reselect output format
Water
Year
Date Gage
Height
(feet)
Stream-
flow
(cfs)
1985 1985-05-05 5.47 1,4005
1986 1986-05-06 6.76 1,7405
1987 1987-03-09 5.11 1,0205
1988 1988-03-23 4.29 7335
1989 1989-04-22   1,0801,5
1990 1990-04-29 4.23 7115
1991 1991-03-05 4.59 8475
1992 1992-02-21 4.35 7565
1993 1993-05-16   1,3301,5
1994 1994-02-28 5.10 1,0505
2001 2001-03-25   6161,5
2002 2002-04-16   6661,5
2003 2003-02-02   5391,5
2004 2004-03-26   6521,5
2005 2005-05-18   8871,5
2006 2006-05-03 6.44 1,6305
2007 2007-02-12 5.49 1,0705
2008 2008-05-01 4.35 6625
2009 2009-06-18 4.98 9325
2010 2010-06-07 5.442 8355
2011 2011-05-30 6.09 1,4005
2012 2012-01-22 5.68 1,1205
2013 2013-09-03 6.69 8785
2014 2014-02-16 5.65 9285
2015 2015-05-23 6.05 6835
2016 2016-04-15 4.92 8395
2017 2017-05-12 6.04 1,3805
2018 2018-03-26 6.01 1,2405
2019 2019-04-26 5.95 1,2805
2020 2020-04-28 4.91 8695
2021 2020-10-15 5.21 7225
?
  Peak Gage-Height Qualification Codes.
?
  Peak Streamflow Qualification Codes.